Springfield Branson National Airport
KSGF : now visible

Airfield :











YOU CAN JOIN US ON...

 
LOGIN :

Register | Disclaimer

   EN    FR    IT 

 









Legend :    VFR   Marginal VFR   IFR   Intensive IFR   Very Intensive IFR
Visi :
Ceiling :
>= 8 km
>= 3000ft
5 to 8 km
1000 to 3000 ft
1500m to 5 km
500 to 1000 ft
800 to 1500m
200 to 500 ft
< 800m
< 200 ft
Symbols :   Thunderstorms  Fog  Heavy snow  Heavy precipitations  Wind > 20 kt






- Airport Elevation : 1268 ft
- IATA code : SGF


KSGF - Springfield Branson National

CURRENT METAR :
  • 061752Z 15021G35KT 10SM FEW022 15/09 A2992 RMK AO2 PK WND 15035/1747 SLP133 T01500089 10150 20061 58023

EXPIRED METARs :
  • 061652Z 15020G28KT 10SM CLR 13/08 A2997 RMK AO2 PK WND 16030/1630 SLP151 T01330083
  • 061552Z 16015G23KT 10SM CLR 13/08 A2999 RMK AO2 SLP157 T01280078

TAF KSGF
Valid from the 06 at 18:00 until the 07 at 18:00 UTC


061720Z 0618/0718 17021G33KT P6SM BKN200
FM062200 28020G30KT P6SM BKN025
FM070100 19015G25KT P6SM OVC025
PROB30 0704/0709 4SM -SHRA BR OVC015
FM070900 29008KT P6SM OVC015
PROB30 0709/0712 4SM -SHRA BR OVC015
KZKC FIR / North America



MET'MAP, your aeronautical weather chart ! - Copyright ORBIFLY December 2007 - Disclaimer

ORBIFLY MET'MAP TEAM :

Programming & Development : Alexandra Zaïnal
Original concept : Baudouin d'Aumeries
Technical & hardware support : Manuel Goepfert
Assistance : Marc-Olivier Méhu




SOURCES & CREDITS :

   NOAA       Earth
Advisory